Terminal Aerodrome Forecast
Issued by NWS Jackson, MS

Home | Current Version | Previous Version | Text Only | Print | Product List | Glossary On
Versions: 1 2 3 4 5 6 7 8 9 10 11 12 13
000
FTUS44 KJAN 250534
TAFMEI
TAF
KMEI 250534Z 2506/2606 16011G20KT P6SM SCT015 BKN250
     FM250800 17011G20KT P6SM BKN015 BKN250
     FM251300 17011G20KT 6SM SHRA VCTS BKN015CB OVC025
     FM251900 18012G20KT 4SM TSRA BKN025CB BKN050
     FM260100 18008KT 5SM SHRA VCTS SCT025 BKN050CB BKN090
     FM260300 17007KT P6SM VCSH BKN015 OVC130=

USA.gov is the U.S. government's official web portal to all federal, state and local government web resources and services.